sensor_id;sensor_type;location;lat;lon;timestamp;temperature;humidity
18884;DHT22;9574;47.282;9.640;2023-01-24T00:02:18;-3.30;99.90
18884;DHT22;9574;47.282;9.640;2023-01-24T00:04:45;-3.40;99.90
18884;DHT22;9574;47.282;9.640;2023-01-24T00:07:13;-3.40;99.90
18884;DHT22;9574;47.282;9.640;2023-01-24T00:09:40;-3.40;99.90
18884;DHT22;9574;47.282;9.640;2023-01-24T00:12:07;-3.50;99.90
18884;DHT22;9574;47.282;9.640;2023-01-24T00:14:34;-3.50;99.90
18884;DHT22;9574;47.282;9.640;2023-01-24T00:17:02;-3.60;99.90
18884;DHT22;9574;47.282;9.640;2023-01-24T00:19:29;-3.60;99.90
18884;DHT22;9574;47.282;9.640;2023-01-24T00:21:56;-3.70;99.90
18884;DHT22;9574;47.282;9.640;2023-01-24T00:24:23;-3.80;99.90
18884;DHT22;9574;47.282;9.640;2023-01-24T00:26:51;-3.90;99.90
18884;DHT22;9574;47.282;9.640;2023-01-24T00:29:18;-3.80;99.90
18884;DHT22;9574;47.282;9.640;2023-01-24T00:31:45;-3.80;99.90
18884;DHT22;9574;47.282;9.640;2023-01-24T00:34:14;-3.80;99.90
18884;DHT22;9574;47.282;9.640;2023-01-24T00:36:41;-3.80;99.90
18884;DHT22;9574;47.282;9.640;2023-01-24T00:39:09;-3.90;99.90
18884;DHT22;9574;47.282;9.640;2023-01-24T00:41:36;-3.70;99.90
18884;DHT22;9574;47.282;9.640;2023-01-24T00:44:03;-3.40;99.90
18884;DHT22;9574;47.282;9.640;2023-01-24T00:46:30;-3.50;99.90
18884;DHT22;9574;47.282;9.640;2023-01-24T00:48:57;-3.80;99.90
18884;DHT22;9574;47.282;9.640;2023-01-24T00:51:27;-3.90;99.90
18884;DHT22;9574;47.282;9.640;2023-01-24T00:53:54;-4.00;99.90
18884;DHT22;9574;47.282;9.640;2023-01-24T00:56:21;-4.00;99.90
18884;DHT22;9574;47.282;9.640;2023-01-24T00:58:48;-4.10;99.90
18884;DHT22;9574;47.282;9.640;2023-01-24T01:01:14;-4.00;99.90
18884;DHT22;9574;47.282;9.640;2023-01-24T01:03:41;-4.00;99.90
18884;DHT22;9574;47.282;9.640;2023-01-24T01:06:12;-4.00;99.90
18884;DHT22;9574;47.282;9.640;2023-01-24T01:08:41;-4.10;99.90
18884;DHT22;9574;47.282;9.640;2023-01-24T01:11:08;-4.00;99.90
18884;DHT22;9574;47.282;9.640;2023-01-24T01:13:35;-3.90;99.90
18884;DHT22;9574;47.282;9.640;2023-01-24T01:16:04;-4.00;99.90
18884;DHT22;9574;47.282;9.640;2023-01-24T01:18:32;-4.10;99.90
18884;DHT22;9574;47.282;9.640;2023-01-24T01:20:59;-4.10;99.90
18884;DHT22;9574;47.282;9.640;2023-01-24T01:23:26;-4.10;99.90
18884;DHT22;9574;47.282;9.640;2023-01-24T01:25:58;-4.10;99.90
18884;DHT22;9574;47.282;9.640;2023-01-24T01:28:25;-4.00;99.90
18884;DHT22;9574;47.282;9.640;2023-01-24T01:30:53;-4.00;99.90
18884;DHT22;9574;47.282;9.640;2023-01-24T01:33:20;-4.00;99.90
18884;DHT22;9574;47.282;9.640;2023-01-24T01:35:47;-4.00;99.90
18884;DHT22;9574;47.282;9.640;2023-01-24T01:38:15;-3.90;99.90
18884;DHT22;9574;47.282;9.640;2023-01-24T01:40:42;-3.80;99.90
18884;DHT22;9574;47.282;9.640;2023-01-24T01:43:13;-3.80;99.90
18884;DHT22;9574;47.282;9.640;2023-01-24T01:45:42;-3.80;99.90
18884;DHT22;9574;47.282;9.640;2023-01-24T01:48:21;-3.80;99.90
18884;DHT22;9574;47.282;9.640;2023-01-24T01:50:58;-3.80;99.90
18884;DHT22;9574;47.282;9.640;2023-01-24T01:53:29;-3.40;99.90
18884;DHT22;9574;47.282;9.640;2023-01-24T01:56:01;-3.40;99.90
18884;DHT22;9574;47.282;9.640;2023-01-24T01:58:30;-3.10;99.90
18884;DHT22;9574;47.282;9.640;2023-01-24T02:00:58;-3.30;99.90
18884;DHT22;9574;47.282;9.640;2023-01-24T02:03:31;-3.50;99.90
18884;DHT22;9574;47.282;9.640;2023-01-24T02:06:15;-3.70;99.90
18884;DHT22;9574;47.282;9.640;2023-01-24T02:08:47;-3.90;99.90
18884;DHT22;9574;47.282;9.640;2023-01-24T02:11:15;-4.00;99.90
18884;DHT22;9574;47.282;9.640;2023-01-24T02:14:02;-4.00;99.90
18884;DHT22;9574;47.282;9.640;2023-01-24T02:16:47;-4.10;99.90
18884;DHT22;9574;47.282;9.640;2023-01-24T02:19:24;-4.20;99.90
18884;DHT22;9574;47.282;9.640;2023-01-24T02:21:56;-4.20;99.90
18884;DHT22;9574;47.282;9.640;2023-01-24T02:24:31;-4.30;99.90
18884;DHT22;9574;47.282;9.640;2023-01-24T02:27:02;-4.30;99.90
18884;DHT22;9574;47.282;9.640;2023-01-24T02:29:29;-4.30;99.90
18884;DHT22;9574;47.282;9.640;2023-01-24T02:31:58;-4.30;99.90
18884;DHT22;9574;47.282;9.640;2023-01-24T02:34:27;-4.30;99.90
18884;DHT22;9574;47.282;9.640;2023-01-24T02:36:56;-4.30;99.90
18884;DHT22;9574;47.282;9.640;2023-01-24T02:39:28;-4.40;99.90
18884;DHT22;9574;47.282;9.640;2023-01-24T02:41:59;-4.50;99.90
18884;DHT22;9574;47.282;9.640;2023-01-24T02:44:30;-4.50;99.90
18884;DHT22;9574;47.282;9.640;2023-01-24T02:46:58;-4.60;99.90
18884;DHT22;9574;47.282;9.640;2023-01-24T02:49:25;-4.60;99.90
18884;DHT22;9574;47.282;9.640;2023-01-24T02:51:52;-4.50;99.90
18884;DHT22;9574;47.282;9.640;2023-01-24T02:54:38;-4.00;99.90
18884;DHT22;9574;47.282;9.640;2023-01-24T02:57:05;-3.90;99.90
18884;DHT22;9574;47.282;9.640;2023-01-24T02:59:51;-3.90;99.90
18884;DHT22;9574;47.282;9.640;2023-01-24T03:02:18;-4.00;99.90
18884;DHT22;9574;47.282;9.640;2023-01-24T03:04:45;-4.00;99.90
18884;DHT22;9574;47.282;9.640;2023-01-24T03:07:12;-4.10;99.90
18884;DHT22;9574;47.282;9.640;2023-01-24T03:09:39;-4.10;99.90
18884;DHT22;9574;47.282;9.640;2023-01-24T03:12:12;-4.10;99.90
18884;DHT22;9574;47.282;9.640;2023-01-24T03:14:58;-4.10;99.90
18884;DHT22;9574;47.282;9.640;2023-01-24T03:17:42;-4.10;99.90
18884;DHT22;9574;47.282;9.640;2023-01-24T03:20:27;-4.10;99.90
18884;DHT22;9574;47.282;9.640;2023-01-24T03:23:11;-4.20;99.90
18884;DHT22;9574;47.282;9.640;2023-01-24T03:25:56;-4.40;99.90
18884;DHT22;9574;47.282;9.640;2023-01-24T03:28:41;-4.60;99.90
18884;DHT22;9574;47.282;9.640;2023-01-24T03:31:27;-4.60;99.90
18884;DHT22;9574;47.282;9.640;2023-01-24T03:34:12;-4.60;99.90
18884;DHT22;9574;47.282;9.640;2023-01-24T03:36:58;-4.60;99.90
18884;DHT22;9574;47.282;9.640;2023-01-24T03:39:25;-4.70;99.90
18884;DHT22;9574;47.282;9.640;2023-01-24T03:42:09;-4.60;99.90
18884;DHT22;9574;47.282;9.640;2023-01-24T03:44:36;-4.50;99.90
18884;DHT22;9574;47.282;9.640;2023-01-24T03:47:05;-4.50;99.90
18884;DHT22;9574;47.282;9.640;2023-01-24T03:49:32;-4.30;99.90
18884;DHT22;9574;47.282;9.640;2023-01-24T03:52:16;-4.30;99.90
18884;DHT22;9574;47.282;9.640;2023-01-24T03:54:53;-4.20;99.90
18884;DHT22;9574;47.282;9.640;2023-01-24T03:57:20;-3.90;99.90
18884;DHT22;9574;47.282;9.640;2023-01-24T03:59:47;-3.90;99.90
18884;DHT22;9574;47.282;9.640;2023-01-24T04:02:16;-4.00;99.90
18884;DHT22;9574;47.282;9.640;2023-01-24T04:04:43;-4.10;99.90
18884;DHT22;9574;47.282;9.640;2023-01-24T04:07:28;-4.00;99.90
18884;DHT22;9574;47.282;9.640;2023-01-24T04:09:55;-3.80;99.90
18884;DHT22;9574;47.282;9.640;2023-01-24T04:12:23;-4.00;99.90
18884;DHT22;9574;47.282;9.640;2023-01-24T04:14:50;-4.10;99.90
18884;DHT22;9574;47.282;9.640;2023-01-24T04:17:18;-4.20;99.90
18884;DHT22;9574;47.282;9.640;2023-01-24T04:19:46;-4.20;99.90
18884;DHT22;9574;47.282;9.640;2023-01-24T04:22:15;-4.20;99.90
18884;DHT22;9574;47.282;9.640;2023-01-24T04:24:42;-4.20;99.90
18884;DHT22;9574;47.282;9.640;2023-01-24T04:27:10;-4.20;99.90
18884;DHT22;9574;47.282;9.640;2023-01-24T04:29:37;-4.20;99.90
18884;DHT22;9574;47.282;9.640;2023-01-24T04:32:04;-4.20;99.90
18884;DHT22;9574;47.282;9.640;2023-01-24T04:34:33;-3.80;99.90
18884;DHT22;9574;47.282;9.640;2023-01-24T04:37:00;-3.90;99.90
18884;DHT22;9574;47.282;9.640;2023-01-24T04:39:27;-4.10;99.90
18884;DHT22;9574;47.282;9.640;2023-01-24T04:41:54;-4.20;99.90
18884;DHT22;9574;47.282;9.640;2023-01-24T04:44:21;-4.20;99.90
18884;DHT22;9574;47.282;9.640;2023-01-24T04:46:48;-3.90;99.90
18884;DHT22;9574;47.282;9.640;2023-01-24T04:49:15;-3.50;99.90
18884;DHT22;9574;47.282;9.640;2023-01-24T04:51:46;-3.30;99.90
18884;DHT22;9574;47.282;9.640;2023-01-24T04:54:13;-3.60;99.90
18884;DHT22;9574;47.282;9.640;2023-01-24T04:56:40;-3.60;99.90
18884;DHT22;9574;47.282;9.640;2023-01-24T04:59:08;-3.90;99.90
18884;DHT22;9574;47.282;9.640;2023-01-24T05:01:36;-4.10;99.90
18884;DHT22;9574;47.282;9.640;2023-01-24T05:04:03;-4.30;99.90
18884;DHT22;9574;47.282;9.640;2023-01-24T05:06:31;-4.20;99.90
18884;DHT22;9574;47.282;9.640;2023-01-24T05:09:00;-3.90;99.90
18884;DHT22;9574;47.282;9.640;2023-01-24T05:11:27;-4.10;99.90
18884;DHT22;9574;47.282;9.640;2023-01-24T05:13:54;-4.30;99.90
18884;DHT22;9574;47.282;9.640;2023-01-24T05:16:21;-4.30;99.90
18884;DHT22;9574;47.282;9.640;2023-01-24T05:18:48;-4.40;99.90
18884;DHT22;9574;47.282;9.640;2023-01-24T05:21:17;-4.60;99.90
18884;DHT22;9574;47.282;9.640;2023-01-24T05:23:48;-4.60;99.90
18884;DHT22;9574;47.282;9.640;2023-01-24T05:26:17;-4.70;99.90
18884;DHT22;9574;47.282;9.640;2023-01-24T05:28:45;-4.80;99.90
18884;DHT22;9574;47.282;9.640;2023-01-24T05:31:12;-4.80;99.90
18884;DHT22;9574;47.282;9.640;2023-01-24T05:33:39;-4.90;99.90
18884;DHT22;9574;47.282;9.640;2023-01-24T05:36:08;-5.00;99.90
18884;DHT22;9574;47.282;9.640;2023-01-24T05:38:35;-5.00;99.90
18884;DHT22;9574;47.282;9.640;2023-01-24T05:41:04;-5.00;99.90
18884;DHT22;9574;47.282;9.640;2023-01-24T05:43:33;-5.00;99.90
18884;DHT22;9574;47.282;9.640;2023-01-24T05:46:01;-5.00;99.90
18884;DHT22;9574;47.282;9.640;2023-01-24T05:48:28;-4.90;99.90
18884;DHT22;9574;47.282;9.640;2023-01-24T05:50:57;-4.80;99.90
18884;DHT22;9574;47.282;9.640;2023-01-24T05:53:24;-4.90;99.90
18884;DHT22;9574;47.282;9.640;2023-01-24T05:55:56;-5.00;99.90
18884;DHT22;9574;47.282;9.640;2023-01-24T05:58:23;-5.10;99.90
18884;DHT22;9574;47.282;9.640;2023-01-24T06:00:52;-5.10;99.90
18884;DHT22;9574;47.282;9.640;2023-01-24T06:03:19;-5.00;99.90
18884;DHT22;9574;47.282;9.640;2023-01-24T06:05:47;-5.10;99.90
18884;DHT22;9574;47.282;9.640;2023-01-24T06:08:14;-5.10;99.90
18884;DHT22;9574;47.282;9.640;2023-01-24T06:10:41;-5.00;99.90
18884;DHT22;9574;47.282;9.640;2023-01-24T06:13:08;-5.00;99.90
18884;DHT22;9574;47.282;9.640;2023-01-24T06:15:36;-5.00;99.90
18884;DHT22;9574;47.282;9.640;2023-01-24T06:18:05;-5.00;99.90
18884;DHT22;9574;47.282;9.640;2023-01-24T06:20:32;-5.00;99.90
18884;DHT22;9574;47.282;9.640;2023-01-24T06:23:03;-5.00;99.90
18884;DHT22;9574;47.282;9.640;2023-01-24T06:25:31;-4.90;99.90
18884;DHT22;9574;47.282;9.640;2023-01-24T06:27:59;-4.90;99.90
18884;DHT22;9574;47.282;9.640;2023-01-24T06:30:27;-4.90;99.90
18884;DHT22;9574;47.282;9.640;2023-01-24T06:33:16;-4.90;99.90
18884;DHT22;9574;47.282;9.640;2023-01-24T06:36:01;-5.00;99.90
18884;DHT22;9574;47.282;9.640;2023-01-24T06:38:32;-5.00;99.90
18884;DHT22;9574;47.282;9.640;2023-01-24T06:41:01;-5.00;99.90
18884;DHT22;9574;47.282;9.640;2023-01-24T06:43:28;-5.10;99.90
18884;DHT22;9574;47.282;9.640;2023-01-24T06:45:55;-5.20;99.90
18884;DHT22;9574;47.282;9.640;2023-01-24T06:48:24;-5.20;99.90
18884;DHT22;9574;47.282;9.640;2023-01-24T06:50:51;-5.20;99.90
18884;DHT22;9574;47.282;9.640;2023-01-24T06:53:18;-5.20;99.90
18884;DHT22;9574;47.282;9.640;2023-01-24T06:55:45;-5.20;99.90
18884;DHT22;9574;47.282;9.640;2023-01-24T06:58:12;-5.30;99.90
18884;DHT22;9574;47.282;9.640;2023-01-24T07:00:39;-5.30;99.90
18884;DHT22;9574;47.282;9.640;2023-01-24T07:03:07;-5.20;99.90
18884;DHT22;9574;47.282;9.640;2023-01-24T07:05:37;-5.20;99.90
18884;DHT22;9574;47.282;9.640;2023-01-24T07:08:06;-4.90;99.90
18884;DHT22;9574;47.282;9.640;2023-01-24T07:10:33;-4.90;99.90
18884;DHT22;9574;47.282;9.640;2023-01-24T07:13:00;-5.00;99.90
18884;DHT22;9574;47.282;9.640;2023-01-24T07:15:27;-5.00;99.90
18884;DHT22;9574;47.282;9.640;2023-01-24T07:17:54;-5.00;99.90
18884;DHT22;9574;47.282;9.640;2023-01-24T07:20:21;-5.10;99.90
18884;DHT22;9574;47.282;9.640;2023-01-24T07:22:51;-5.10;99.90
18884;DHT22;9574;47.282;9.640;2023-01-24T07:25:20;-5.10;99.90
18884;DHT22;9574;47.282;9.640;2023-01-24T07:27:47;-5.10;99.90
18884;DHT22;9574;47.282;9.640;2023-01-24T07:30:15;-5.00;99.90
18884;DHT22;9574;47.282;9.640;2023-01-24T07:32:42;-5.00;99.90
18884;DHT22;9574;47.282;9.640;2023-01-24T07:35:09;-5.00;99.90
18884;DHT22;9574;47.282;9.640;2023-01-24T07:37:37;-5.00;99.90
18884;DHT22;9574;47.282;9.640;2023-01-24T07:40:07;-5.10;99.90
18884;DHT22;9574;47.282;9.640;2023-01-24T07:42:34;-5.20;99.90
18884;DHT22;9574;47.282;9.640;2023-01-24T07:45:01;-5.20;99.90
18884;DHT22;9574;47.282;9.640;2023-01-24T07:47:28;-5.20;99.90
18884;DHT22;9574;47.282;9.640;2023-01-24T07:49:56;-5.30;99.90
18884;DHT22;9574;47.282;9.640;2023-01-24T07:52:24;-5.20;99.90
18884;DHT22;9574;47.282;9.640;2023-01-24T07:54:51;-5.10;99.90
18884;DHT22;9574;47.282;9.640;2023-01-24T07:57:19;-5.00;99.90
18884;DHT22;9574;47.282;9.640;2023-01-24T07:59:46;-5.00;99.90
18884;DHT22;9574;47.282;9.640;2023-01-24T08:02:13;-5.00;99.90
18884;DHT22;9574;47.282;9.640;2023-01-24T08:04:40;-5.00;99.90
18884;DHT22;9574;47.282;9.640;2023-01-24T08:07:07;-4.90;99.90
18884;DHT22;9574;47.282;9.640;2023-01-24T08:09:47;-4.80;99.90
18884;DHT22;9574;47.282;9.640;2023-01-24T08:12:14;-4.80;99.90
18884;DHT22;9574;47.282;9.640;2023-01-24T08:14:43;-4.90;99.90
18884;DHT22;9574;47.282;9.640;2023-01-24T08:17:10;-4.90;99.90
18884;DHT22;9574;47.282;9.640;2023-01-24T08:19:37;-4.80;99.90
18884;DHT22;9574;47.282;9.640;2023-01-24T08:22:05;-4.80;99.90
18884;DHT22;9574;47.282;9.640;2023-01-24T08:24:32;-4.50;99.90
18884;DHT22;9574;47.282;9.640;2023-01-24T08:27:00;-4.20;99.90
18884;DHT22;9574;47.282;9.640;2023-01-24T08:29:27;-4.00;99.90
18884;DHT22;9574;47.282;9.640;2023-01-24T08:31:57;-3.80;99.90
18884;DHT22;9574;47.282;9.640;2023-01-24T08:34:24;-3.50;99.90
18884;DHT22;9574;47.282;9.640;2023-01-24T08:36:51;-3.30;99.90
18884;DHT22;9574;47.282;9.640;2023-01-24T08:39:18;-3.30;99.90
18884;DHT22;9574;47.282;9.640;2023-01-24T08:41:45;-3.20;99.90
18884;DHT22;9574;47.282;9.640;2023-01-24T08:44:13;-3.10;99.90
18884;DHT22;9574;47.282;9.640;2023-01-24T08:46:41;-2.90;99.90
18884;DHT22;9574;47.282;9.640;2023-01-24T08:49:11;-2.90;99.90
18884;DHT22;9574;47.282;9.640;2023-01-24T08:51:38;-2.70;99.90
18884;DHT22;9574;47.282;9.640;2023-01-24T08:54:05;-2.60;99.90
18884;DHT22;9574;47.282;9.640;2023-01-24T08:56:33;-2.40;99.90
18884;DHT22;9574;47.282;9.640;2023-01-24T08:59:00;-2.10;99.90
18884;DHT22;9574;47.282;9.640;2023-01-24T09:01:27;-1.90;99.90
18884;DHT22;9574;47.282;9.640;2023-01-24T09:03:54;-1.70;99.90
18884;DHT22;9574;47.282;9.640;2023-01-24T09:06:23;-2.20;99.90
18884;DHT22;9574;47.282;9.640;2023-01-24T09:08:52;-2.50;99.90
18884;DHT22;9574;47.282;9.640;2023-01-24T09:11:19;-2.70;99.90
18884;DHT22;9574;47.282;9.640;2023-01-24T09:13:47;-2.90;99.90
18884;DHT22;9574;47.282;9.640;2023-01-24T09:16:14;-3.00;99.90
18884;DHT22;9574;47.282;9.640;2023-01-24T09:18:41;-3.10;99.90
18884;DHT22;9574;47.282;9.640;2023-01-24T09:21:08;-3.00;99.90
18884;DHT22;9574;47.282;9.640;2023-01-24T09:23:36;-3.00;99.90
18884;DHT22;9574;47.282;9.640;2023-01-24T09:26:04;-3.10;99.90
18884;DHT22;9574;47.282;9.640;2023-01-24T09:28:31;-3.00;99.90
18884;DHT22;9574;47.282;9.640;2023-01-24T09:30:59;-3.00;99.90
18884;DHT22;9574;47.282;9.640;2023-01-24T09:33:26;-2.70;99.90
18884;DHT22;9574;47.282;9.640;2023-01-24T09:35:55;-2.70;99.90
18884;DHT22;9574;47.282;9.640;2023-01-24T09:38:24;-2.60;99.90
18884;DHT22;9574;47.282;9.640;2023-01-24T09:40:57;-2.30;99.90
18884;DHT22;9574;47.282;9.640;2023-01-24T09:43:41;-2.10;99.90
18884;DHT22;9574;47.282;9.640;2023-01-24T09:46:17;-2.00;99.90
18884;DHT22;9574;47.282;9.640;2023-01-24T09:48:46;-1.60;99.90
18884;DHT22;9574;47.282;9.640;2023-01-24T09:51:17;-1.60;99.90
18884;DHT22;9574;47.282;9.640;2023-01-24T09:53:49;-1.80;99.90
18884;DHT22;9574;47.282;9.640;2023-01-24T09:56:21;-1.80;99.90
18884;DHT22;9574;47.282;9.640;2023-01-24T09:59:01;-1.60;99.90
18884;DHT22;9574;47.282;9.640;2023-01-24T10:01:36;-1.70;99.90
18884;DHT22;9574;47.282;9.640;2023-01-24T10:04:13;-1.60;99.90
18884;DHT22;9574;47.282;9.640;2023-01-24T10:06:48;-1.50;99.90
18884;DHT22;9574;47.282;9.640;2023-01-24T10:09:24;-1.70;99.90
18884;DHT22;9574;47.282;9.640;2023-01-24T10:12:01;-1.60;99.90
18884;DHT22;9574;47.282;9.640;2023-01-24T10:14:49;-1.60;99.90
18884;DHT22;9574;47.282;9.640;2023-01-24T10:17:37;-1.60;99.90
18884;DHT22;9574;47.282;9.640;2023-01-24T10:20:27;-1.60;99.90
18884;DHT22;9574;47.282;9.640;2023-01-24T10:23:02;-1.70;99.90
18884;DHT22;9574;47.282;9.640;2023-01-24T10:25:34;-1.50;99.90
18884;DHT22;9574;47.282;9.640;2023-01-24T10:28:15;-1.50;99.90
18884;DHT22;9574;47.282;9.640;2023-01-24T10:30:52;-1.30;99.90
18884;DHT22;9574;47.282;9.640;2023-01-24T10:33:20;-1.10;99.90
18884;DHT22;9574;47.282;9.640;2023-01-24T10:35:57;-0.90;99.90
18884;DHT22;9574;47.282;9.640;2023-01-24T10:38:25;-0.50;99.90
18884;DHT22;9574;47.282;9.640;2023-01-24T10:40:54;-0.30;99.90
18884;DHT22;9574;47.282;9.640;2023-01-24T10:43:26;0.10;99.90
18884;DHT22;9574;47.282;9.640;2023-01-24T10:46:13;0.50;99.90
18884;DHT22;9574;47.282;9.640;2023-01-24T10:48:43;0.70;99.90
18884;DHT22;9574;47.282;9.640;2023-01-24T10:51:13;0.90;99.90
18884;DHT22;9574;47.282;9.640;2023-01-24T10:56:12;1.20;99.90
18884;DHT22;9574;47.282;9.640;2023-01-24T10:58:42;1.60;99.90
18884;DHT22;9574;47.282;9.640;2023-01-24T11:01:17;1.70;99.90
18884;DHT22;9574;47.282;9.640;2023-01-24T11:03:46;1.90;99.90
18884;DHT22;9574;47.282;9.640;2023-01-24T11:06:25;1.90;99.90
18884;DHT22;9574;47.282;9.640;2023-01-24T11:09:03;1.90;99.90
18884;DHT22;9574;47.282;9.640;2023-01-24T11:11:32;1.80;99.90
18884;DHT22;9574;47.282;9.640;2023-01-24T11:14:02;1.90;99.90
18884;DHT22;9574;47.282;9.640;2023-01-24T11:16:33;2.00;99.90
18884;DHT22;9574;47.282;9.640;2023-01-24T11:19:02;2.10;99.90
18884;DHT22;9574;47.282;9.640;2023-01-24T11:21:31;2.20;99.90
18884;DHT22;9574;47.282;9.640;2023-01-24T11:24:01;2.30;99.90
18884;DHT22;9574;47.282;9.640;2023-01-24T11:26:29;2.30;99.90
18884;DHT22;9574;47.282;9.640;2023-01-24T11:28:59;2.40;99.90
18884;DHT22;9574;47.282;9.640;2023-01-24T11:31:31;2.30;99.90
18884;DHT22;9574;47.282;9.640;2023-01-24T11:34:25;2.80;99.90
18884;DHT22;9574;47.282;9.640;2023-01-24T11:37:15;3.10;99.90
18884;DHT22;9574;47.282;9.640;2023-01-24T11:39:50;3.40;99.90
18884;DHT22;9574;47.282;9.640;2023-01-24T11:42:27;3.20;99.90
18884;DHT22;9574;47.282;9.640;2023-01-24T11:45:19;2.70;99.90
18884;DHT22;9574;47.282;9.640;2023-01-24T11:48:00;2.60;99.90
18884;DHT22;9574;47.282;9.640;2023-01-24T11:50:40;2.40;99.90
18884;DHT22;9574;47.282;9.640;2023-01-24T11:53:23;2.10;99.90
18884;DHT22;9574;47.282;9.640;2023-01-24T11:56:01;1.80;99.90
18884;DHT22;9574;47.282;9.640;2023-01-24T11:58:47;1.70;99.90
18884;DHT22;9574;47.282;9.640;2023-01-24T12:01:21;1.70;99.90
18884;DHT22;9574;47.282;9.640;2023-01-24T12:04:11;1.70;99.90
18884;DHT22;9574;47.282;9.640;2023-01-24T12:06:46;2.00;99.90
18884;DHT22;9574;47.282;9.640;2023-01-24T12:09:20;2.30;99.90
18884;DHT22;9574;47.282;9.640;2023-01-24T12:12:04;2.60;99.90
18884;DHT22;9574;47.282;9.640;2023-01-24T12:14:56;3.10;99.90
18884;DHT22;9574;47.282;9.640;2023-01-24T12:17:44;3.80;99.90
18884;DHT22;9574;47.282;9.640;2023-01-24T12:20:24;4.50;99.90
18884;DHT22;9574;47.282;9.640;2023-01-24T12:22:54;5.00;99.90
18884;DHT22;9574;47.282;9.640;2023-01-24T12:25:25;5.10;99.90
18884;DHT22;9574;47.282;9.640;2023-01-24T12:27:58;5.20;99.90
18884;DHT22;9574;47.282;9.640;2023-01-24T12:30:31;5.30;99.90
18884;DHT22;9574;47.282;9.640;2023-01-24T12:33:03;5.20;99.90
18884;DHT22;9574;47.282;9.640;2023-01-24T12:35:39;5.20;99.90
18884;DHT22;9574;47.282;9.640;2023-01-24T12:38:16;4.80;99.90
18884;DHT22;9574;47.282;9.640;2023-01-24T12:40:49;4.70;99.90
18884;DHT22;9574;47.282;9.640;2023-01-24T12:43:22;4.90;99.90
18884;DHT22;9574;47.282;9.640;2023-01-24T12:45:59;5.40;99.90
18884;DHT22;9574;47.282;9.640;2023-01-24T12:48:36;5.80;99.90
18884;DHT22;9574;47.282;9.640;2023-01-24T12:51:13;6.10;99.90
18884;DHT22;9574;47.282;9.640;2023-01-24T12:53:45;6.30;99.90
18884;DHT22;9574;47.282;9.640;2023-01-24T12:56:17;6.50;99.90
18884;DHT22;9574;47.282;9.640;2023-01-24T12:58:48;6.70;99.90
18884;DHT22;9574;47.282;9.640;2023-01-24T13:04:22;6.50;99.90
18884;DHT22;9574;47.282;9.640;2023-01-24T13:07:06;6.30;99.90
18884;DHT22;9574;47.282;9.640;2023-01-24T13:09:39;6.10;99.90
18884;DHT22;9574;47.282;9.640;2023-01-24T13:12:13;6.10;99.90
18884;DHT22;9574;47.282;9.640;2023-01-24T13:14:44;6.20;99.90
18884;DHT22;9574;47.282;9.640;2023-01-24T13:20:39;6.40;99.90
18884;DHT22;9574;47.282;9.640;2023-01-24T13:23:23;6.50;99.90
18884;DHT22;9574;47.282;9.640;2023-01-24T13:26:14;6.50;99.90
18884;DHT22;9574;47.282;9.640;2023-01-24T13:28:50;6.50;99.90
18884;DHT22;9574;47.282;9.640;2023-01-24T13:31:23;6.40;99.90
18884;DHT22;9574;47.282;9.640;2023-01-24T13:33:54;6.40;99.90
18884;DHT22;9574;47.282;9.640;2023-01-24T13:36:24;6.50;99.90
18884;DHT22;9574;47.282;9.640;2023-01-24T13:38:53;6.50;99.90
18884;DHT22;9574;47.282;9.640;2023-01-24T13:41:33;6.40;99.90
18884;DHT22;9574;47.282;9.640;2023-01-24T13:44:01;6.30;99.90
18884;DHT22;9574;47.282;9.640;2023-01-24T13:46:56;6.40;99.90
18884;DHT22;9574;47.282;9.640;2023-01-24T13:49:33;6.50;99.90
18884;DHT22;9574;47.282;9.640;2023-01-24T13:52:02;6.50;99.90
18884;DHT22;9574;47.282;9.640;2023-01-24T13:54:38;6.30;99.90
18884;DHT22;9574;47.282;9.640;2023-01-24T13:57:22;6.30;99.90
18884;DHT22;9574;47.282;9.640;2023-01-24T14:00:15;6.50;99.90
18884;DHT22;9574;47.282;9.640;2023-01-24T14:02:58;6.60;99.90
18884;DHT22;9574;47.282;9.640;2023-01-24T14:05:48;6.70;99.90
18884;DHT22;9574;47.282;9.640;2023-01-24T14:08:35;6.50;99.90
18884;DHT22;9574;47.282;9.640;2023-01-24T14:11:23;6.30;99.90
18884;DHT22;9574;47.282;9.640;2023-01-24T14:13:57;6.40;99.90
18884;DHT22;9574;47.282;9.640;2023-01-24T14:16:55;6.20;99.90
18884;DHT22;9574;47.282;9.640;2023-01-24T14:19:25;5.90;99.90
18884;DHT22;9574;47.282;9.640;2023-01-24T14:21:59;5.60;99.90
18884;DHT22;9574;47.282;9.640;2023-01-24T14:24:33;5.40;99.90
18884;DHT22;9574;47.282;9.640;2023-01-24T14:27:16;5.50;99.90
18884;DHT22;9574;47.282;9.640;2023-01-24T14:29:47;5.20;99.90
18884;DHT22;9574;47.282;9.640;2023-01-24T14:32:21;4.70;99.90
18884;DHT22;9574;47.282;9.640;2023-01-24T14:34:56;4.60;99.90
18884;DHT22;9574;47.282;9.640;2023-01-24T14:37:25;4.40;99.90
18884;DHT22;9574;47.282;9.640;2023-01-24T14:39:53;4.20;99.90
18884;DHT22;9574;47.282;9.640;2023-01-24T14:42:36;4.00;99.90
18884;DHT22;9574;47.282;9.640;2023-01-24T14:45:04;4.30;99.90
18884;DHT22;9574;47.282;9.640;2023-01-24T14:47:38;4.40;99.90
18884;DHT22;9574;47.282;9.640;2023-01-24T14:50:20;4.40;99.90
18884;DHT22;9574;47.282;9.640;2023-01-24T14:52:48;4.50;99.90
18884;DHT22;9574;47.282;9.640;2023-01-24T14:55:30;4.50;99.90
18884;DHT22;9574;47.282;9.640;2023-01-24T14:58:14;4.30;99.90
18884;DHT22;9574;47.282;9.640;2023-01-24T15:00:43;4.20;99.90
18884;DHT22;9574;47.282;9.640;2023-01-24T15:03:15;4.20;99.90
18884;DHT22;9574;47.282;9.640;2023-01-24T15:05:53;4.40;99.90
18884;DHT22;9574;47.282;9.640;2023-01-24T15:08:21;4.40;99.90
18884;DHT22;9574;47.282;9.640;2023-01-24T15:10:55;4.30;99.90
18884;DHT22;9574;47.282;9.640;2023-01-24T15:13:31;4.30;99.90
18884;DHT22;9574;47.282;9.640;2023-01-24T15:16:00;4.00;99.90
18884;DHT22;9574;47.282;9.640;2023-01-24T15:18:48;3.90;99.90
18884;DHT22;9574;47.282;9.640;2023-01-24T15:21:24;3.90;99.90
18884;DHT22;9574;47.282;9.640;2023-01-24T15:23:53;4.10;99.90
18884;DHT22;9574;47.282;9.640;2023-01-24T15:26:33;4.00;99.90
18884;DHT22;9574;47.282;9.640;2023-01-24T15:29:39;4.10;99.90
18884;DHT22;9574;47.282;9.640;2023-01-24T15:32:37;4.00;99.90
18884;DHT22;9574;47.282;9.640;2023-01-24T15:38:13;3.10;99.90
18884;DHT22;9574;47.282;9.640;2023-01-24T15:41:01;2.70;99.90
18884;DHT22;9574;47.282;9.640;2023-01-24T15:43:34;2.60;99.90
18884;DHT22;9574;47.282;9.640;2023-01-24T15:46:29;2.50;99.90
18884;DHT22;9574;47.282;9.640;2023-01-24T15:49:27;2.10;99.90
18884;DHT22;9574;47.282;9.640;2023-01-24T15:54:55;1.70;99.90
18884;DHT22;9574;47.282;9.640;2023-01-24T15:57:27;1.50;99.90
18884;DHT22;9574;47.282;9.640;2023-01-24T15:59:57;1.60;99.90
18884;DHT22;9574;47.282;9.640;2023-01-24T16:02:26;1.80;99.90
18884;DHT22;9574;47.282;9.640;2023-01-24T16:04:53;1.60;99.90
18884;DHT22;9574;47.282;9.640;2023-01-24T16:07:20;1.60;99.90
18884;DHT22;9574;47.282;9.640;2023-01-24T16:09:48;1.70;99.90
18884;DHT22;9574;47.282;9.640;2023-01-24T16:12:17;1.60;99.90
18884;DHT22;9574;47.282;9.640;2023-01-24T16:14:50;1.60;99.90
18884;DHT22;9574;47.282;9.640;2023-01-24T16:17:19;1.40;99.90
18884;DHT22;9574;47.282;9.640;2023-01-24T16:19:49;1.20;99.90
18884;DHT22;9574;47.282;9.640;2023-01-24T16:22:16;1.10;99.90
18884;DHT22;9574;47.282;9.640;2023-01-24T16:24:43;1.00;99.90
18884;DHT22;9574;47.282;9.640;2023-01-24T16:27:12;0.90;99.90
18884;DHT22;9574;47.282;9.640;2023-01-24T16:29:40;0.90;99.90
18884;DHT22;9574;47.282;9.640;2023-01-24T16:32:18;0.80;99.90
18884;DHT22;9574;47.282;9.640;2023-01-24T16:34:45;0.70;99.90
18884;DHT22;9574;47.282;9.640;2023-01-24T16:37:14;0.70;99.90
18884;DHT22;9574;47.282;9.640;2023-01-24T16:39:43;0.70;99.90